Time;durP1;ratioP1;P1;durP2;ratioP2;P2;SDS_P1;SDS_P2;PMS_P1;PMS_P2;Temp;Humidity;BMP_temperature;BMP_pressure;BME280_temperature;BME280_humidity;BME280_pressure;Samples;Min_cycle;Max_cycle;Signal;HPM_P1;HPM_P2
2024/04/04 00:00:00;;;;;;;0.60;0.60;;;18.70;1.00;;;;;;2612365;54;20170;-66
2024/04/04 00:02:26;;;;;;;0.60;0.50;;;18.70;1.00;;;;;;2612169;54;20174;-65
2024/04/04 00:05:02;;;;;;;0.60;0.40;;;18.70;1.00;;;;;;2612024;54;20175;-64
2024/04/04 00:07:28;;;;;;;0.70;0.50;;;18.70;1.00;;;;;;2611394;54;20147;-64
2024/04/04 00:09:54;;;;;;;0.63;0.47;;;18.70;1.00;;;;;;2612260;54;20979;-62
2024/04/04 00:12:20;;;;;;;0.60;0.40;;;18.70;1.00;;;;;;2612164;54;20196;-63
2024/04/04 00:14:47;;;;;;;0.60;0.50;;;18.70;1.00;;;;;;2612476;54;20226;-63
2024/04/04 00:17:13;;;;;;;0.60;0.40;;;18.70;1.00;;;;;;2612170;39;20931;-62
2024/04/04 00:19:38;;;;;;;0.70;0.53;;;18.70;1.00;;;;;;2612816;39;20814;-63
2024/04/04 00:22:04;;;;;;;0.70;0.50;;;18.70;1.00;;;;;;2611773;47;20159;-62
2024/04/04 00:24:30;;;;;;;0.60;0.40;;;18.70;1.00;;;;;;2612177;39;20517;-62
2024/04/04 00:26:56;;;;;;;0.70;0.50;;;18.70;1.00;;;;;;2612208;54;20442;-61
2024/04/04 00:29:21;;;;;;;0.60;0.40;;;18.70;1.00;;;;;;2612481;54;20731;-62
2024/04/04 00:31:47;;;;;;;0.60;0.50;;;18.70;1.00;;;;;;2612815;54;20159;-63
2024/04/04 00:34:13;;;;;;;0.70;0.60;;;18.70;1.00;;;;;;2613279;31;20636;-63
2024/04/04 00:36:38;;;;;;;0.60;0.40;;;18.70;1.00;;;;;;2611621;54;20166;-61
2024/04/04 00:39:04;;;;;;;0.70;0.50;;;18.70;1.00;;;;;;2612074;54;20169;-63
2024/04/04 00:41:30;;;;;;;0.60;0.50;;;18.70;1.00;;;;;;2611575;39;21377;-62
2024/04/04 00:43:56;;;;;;;0.63;0.40;;;18.70;1.00;;;;;;2612510;47;20676;-61
2024/04/04 00:46:22;;;;;;;0.70;0.50;;;18.70;1.00;;;;;;2612187;54;20415;-62
2024/04/04 00:48:48;;;;;;;0.70;0.50;;;18.70;1.00;;;;;;2612088;54;20154;-62
2024/04/04 00:51:14;;;;;;;0.60;0.50;;;18.70;1.00;;;;;;2612262;54;20426;-63
2024/04/04 00:53:41;;;;;;;0.70;0.50;;;18.70;1.00;;;;;;2610888;54;20772;-61
2024/04/04 00:56:07;;;;;;;0.60;0.40;;;18.70;1.00;;;;;;2611944;47;20403;-63
2024/04/04 00:58:35;;;;;;;0.60;0.40;;;18.70;1.00;;;;;;2612303;54;20423;-62
2024/04/04 01:01:01;;;;;;;0.60;0.43;;;18.70;1.00;;;;;;2611581;54;20159;-61
2024/04/04 01:03:27;;;;;;;0.70;0.50;;;18.70;1.00;;;;;;2611463;54;20465;-62
2024/04/04 01:05:53;;;;;;;0.70;0.50;;;18.70;1.00;;;;;;2612235;54;20420;-60
2024/04/04 01:08:22;;;;;;;0.60;0.50;;;18.70;1.00;;;;;;2611482;47;20400;-61
2024/04/04 01:10:48;;;;;;;0.70;0.57;;;18.70;1.00;;;;;;2612078;39;20563;-60
2024/04/04 01:13:14;;;;;;;0.70;0.50;;;18.70;1.00;;;;;;2611259;54;20451;-61
2024/04/04 01:15:40;;;;;;;0.60;0.40;;;18.70;1.00;;;;;;2612190;54;20167;-61
2024/04/04 01:18:06;;;;;;;0.60;0.50;;;18.70;1.00;;;;;;2611576;54;20435;-60
2024/04/04 01:20:31;;;;;;;0.60;0.40;;;18.70;1.00;;;;;;2612032;54;20191;-61
2024/04/04 01:22:57;;;;;;;0.67;0.50;;;18.70;1.00;;;;;;2611866;54;20158;-60
2024/04/04 01:25:23;;;;;;;0.67;0.50;;;18.70;1.00;;;;;;2611702;54;20165;-59
2024/04/04 01:27:49;;;;;;;0.70;0.40;;;18.70;1.00;;;;;;2611682;54;20162;-61
2024/04/04 01:30:16;;;;;;;0.70;0.60;;;18.70;1.00;;;;;;2612049;47;20177;-59
2024/04/04 01:32:42;;;;;;;0.70;0.60;;;18.70;1.00;;;;;;2611857;47;20444;-60
2024/04/04 01:35:08;;;;;;;0.67;0.50;;;18.70;1.00;;;;;;2612351;54;20515;-59
2024/04/04 01:37:34;;;;;;;0.70;0.50;;;18.70;1.00;;;;;;2611620;54;20669;-61
2024/04/04 01:39:59;;;;;;;0.70;0.50;;;18.70;1.00;;;;;;2611931;54;20974;-60
2024/04/04 01:42:25;;;;;;;0.70;0.50;;;18.70;1.00;;;;;;2611849;54;20518;-59
2024/04/04 01:44:51;;;;;;;0.70;0.50;;;18.70;1.00;;;;;;2611208;54;20174;-61
2024/04/04 01:47:16;;;;;;;0.70;0.60;;;18.60;1.00;;;;;;2612271;54;20170;-62
2024/04/04 01:49:42;;;;;;;0.60;0.47;;;18.70;1.00;;;;;;2611866;47;20171;-62
2024/04/04 01:52:08;;;;;;;0.70;0.50;;;18.70;1.00;;;;;;2611592;47;20203;-62
2024/04/04 01:54:33;;;;;;;0.70;0.50;;;18.70;1.00;;;;;;2611105;54;20197;-62
2024/04/04 01:56:59;;;;;;;0.70;0.50;;;18.70;1.00;;;;;;2611042;54;20258;-61
2024/04/04 01:59:25;;;;;;;0.70;0.60;;;18.70;1.00;;;;;;2612218;54;20147;-62
2024/04/04 02:01:51;;;;;;;0.70;0.60;;;18.70;1.00;;;;;;2612319;39;20608;-62
2024/04/04 02:04:16;;;;;;;0.70;0.60;;;18.70;1.00;;;;;;2612629;54;20159;-62
2024/04/04 02:06:42;;;;;;;0.70;0.60;;;18.60;1.00;;;;;;2612605;47;20173;-62
2024/04/04 02:09:08;;;;;;;0.70;0.60;;;18.60;1.00;;;;;;2612418;47;20159;-61
2024/04/04 02:11:35;;;;;;;0.70;0.60;;;18.60;1.00;;;;;;2612365;54;20246;-62
2024/04/04 02:14:00;;;;;;;0.70;0.60;;;18.60;1.00;;;;;;2612978;51;20173;-61
2024/04/04 02:16:26;;;;;;;0.70;0.60;;;18.60;1.00;;;;;;2612264;54;20415;-62
2024/04/04 02:18:52;;;;;;;0.70;0.60;;;18.60;1.00;;;;;;2612834;54;20172;-62
2024/04/04 02:21:17;;;;;;;0.70;0.60;;;18.60;1.00;;;;;;2612962;54;20185;-63
2024/04/04 02:23:44;;;;;;;0.70;0.60;;;18.60;1.00;;;;;;2611578;54;20174;-63
2024/04/04 02:26:09;;;;;;;0.70;0.70;;;18.70;1.00;;;;;;2613606;31;20679;-65
2024/04/04 02:28:35;;;;;;;0.70;0.60;;;18.60;1.00;;;;;;2612671;47;20424;-65
2024/04/04 02:31:01;;;;;;;0.70;0.60;;;18.60;1.00;;;;;;2613318;39;20695;-66
2024/04/04 02:33:28;;;;;;;0.70;0.63;;;18.60;1.00;;;;;;2612838;54;20183;-65
2024/04/04 02:35:55;;;;;;;0.70;0.60;;;18.60;1.00;;;;;;2612187;54;20763;-66
2024/04/04 02:38:22;;;;;;;0.70;0.60;;;18.60;1.00;;;;;;2613581;54;20420;-66
2024/04/04 02:40:48;;;;;;;0.70;0.60;;;18.60;1.00;;;;;;2612928;54;20427;-65
2024/04/04 02:43:15;;;;;;;0.70;0.60;;;18.60;1.00;;;;;;2612284;54;20530;-65
2024/04/04 02:45:42;;;;;;;0.70;0.60;;;18.60;1.00;;;;;;2612862;47;20420;-66
2024/04/04 02:48:08;;;;;;;0.70;0.60;;;18.60;1.00;;;;;;2612016;54;21140;-65
2024/04/04 02:50:34;;;;;;;0.70;0.60;;;18.60;1.00;;;;;;2612425;54;20448;-65
2024/04/04 02:52:59;;;;;;;0.70;0.60;;;18.70;1.00;;;;;;2613566;39;20843;-65
2024/04/04 02:55:26;;;;;;;0.70;0.50;;;18.60;1.00;;;;;;2612389;54;20178;-63
2024/04/04 02:57:52;;;;;;;0.70;0.60;;;18.60;1.00;;;;;;2612941;31;20647;-63
2024/04/04 03:00:18;;;;;;;0.70;0.50;;;18.70;1.00;;;;;;2612604;47;20431;-63
2024/04/04 03:02:43;;;;;;;0.70;0.60;;;18.60;1.00;;;;;;2612289;54;20267;-62
2024/04/04 03:05:09;;;;;;;0.70;0.50;;;18.60;1.00;;;;;;2611846;54;20236;-62
2024/04/04 03:07:36;;;;;;;0.70;0.60;;;18.60;1.00;;;;;;2612255;47;20174;-62
2024/04/04 03:10:02;;;;;;;0.70;0.60;;;18.60;1.00;;;;;;2612618;51;20510;-62
2024/04/04 03:12:28;;;;;;;0.70;0.50;;;18.60;1.00;;;;;;2612643;46;20423;-63
2024/04/04 03:14:54;;;;;;;0.60;0.50;;;18.60;1.00;;;;;;2613130;47;20411;-62
2024/04/04 03:17:20;;;;;;;0.70;0.60;;;18.60;1.00;;;;;;2612585;39;20649;-62
2024/04/04 03:19:45;;;;;;;0.70;0.50;;;18.60;1.00;;;;;;2611697;47;20182;-61
2024/04/04 03:22:11;;;;;;;0.70;0.60;;;18.60;1.00;;;;;;2612844;47;20188;-62
2024/04/04 03:24:37;;;;;;;0.70;0.50;;;18.60;1.00;;;;;;2612406;54;20177;-62
2024/04/04 03:27:03;;;;;;;0.70;0.50;;;18.60;1.00;;;;;;2613305;54;20174;-60
2024/04/04 03:29:28;;;;;;;0.67;0.50;;;18.60;1.00;;;;;;2612354;54;20244;-60
2024/04/04 03:31:54;;;;;;;0.70;0.50;;;18.60;1.00;;;;;;2612207;54;20497;-59
2024/04/04 03:34:20;;;;;;;0.67;0.50;;;18.60;1.00;;;;;;2612560;54;20162;-61
2024/04/04 03:36:49;;;;;;;0.70;0.50;;;18.60;1.00;;;;;;2612031;47;20190;-58
2024/04/04 03:39:15;;;;;;;0.70;0.60;;;18.60;1.00;;;;;;2612910;54;20244;-59
2024/04/04 03:41:41;;;;;;;0.70;0.60;;;18.60;1.00;;;;;;2612603;50;20441;-58
2024/04/04 03:44:08;;;;;;;0.70;0.50;;;18.60;1.00;;;;;;2613058;47;20407;-60
2024/04/04 03:46:33;;;;;;;0.67;0.50;;;18.60;1.00;;;;;;2613163;54;20616;-59
2024/04/04 03:48:59;;;;;;;0.70;0.50;;;18.60;1.00;;;;;;2611898;54;20423;-59
2024/04/04 03:51:26;;;;;;;0.67;0.50;;;18.60;1.00;;;;;;2613268;47;20195;-58
2024/04/04 03:53:52;;;;;;;0.70;0.50;;;18.60;1.00;;;;;;2612691;54;20202;-59
2024/04/04 03:56:18;;;;;;;0.60;0.50;;;18.60;1.00;;;;;;2613514;47;20439;-61
2024/04/04 03:58:44;;;;;;;0.70;0.60;;;18.60;1.00;;;;;;2612444;47;20427;-58
2024/04/04 04:01:10;;;;;;;0.70;0.50;;;18.60;1.00;;;;;;2611544;54;20162;-58
2024/04/04 04:03:36;;;;;;;0.70;0.50;;;18.60;1.00;;;;;;2611101;54;20527;-59
2024/04/04 04:06:01;;;;;;;0.70;0.50;;;18.60;1.00;;;;;;2612632;47;20419;-61
2024/04/04 04:08:28;;;;;;;0.67;0.50;;;18.60;1.00;;;;;;2613098;47;20236;-62
2024/04/04 04:10:53;;;;;;;0.70;0.63;;;18.60;1.00;;;;;;2612701;54;20175;-62
2024/04/04 04:13:20;;;;;;;0.70;0.50;;;18.60;1.00;;;;;;2611848;54;20538;-62
2024/04/04 04:15:58;;;;;;;0.70;0.50;;;18.60;1.00;;;;;;2613445;39;20577;-61
2024/04/04 04:18:23;;;;;;;0.70;0.50;;;18.60;1.00;;;;;;2612873;54;20464;-61
2024/04/04 04:23:33;;;;;;;0.67;0.50;;;18.60;1.00;;;;;;2612918;54;20153;-63
2024/04/04 04:25:59;;;;;;;0.70;0.60;;;18.60;1.00;;;;;;2612810;54;20419;-63
2024/04/04 04:28:25;;;;;;;0.67;0.50;;;18.60;1.00;;;;;;2612403;54;20174;-63
2024/04/04 04:30:52;;;;;;;0.70;0.50;;;18.60;1.00;;;;;;2612759;47;20154;-63
2024/04/04 04:33:17;;;;;;;0.70;0.50;;;18.60;1.00;;;;;;2612135;47;20191;-62
2024/04/04 04:35:43;;;;;;;0.70;0.50;;;18.60;1.00;;;;;;2613205;54;20468;-65
2024/04/04 04:38:09;;;;;;;0.70;0.60;;;18.60;1.00;;;;;;2612924;54;20158;-66
2024/04/04 04:40:35;;;;;;;0.60;0.50;;;18.60;1.00;;;;;;2612809;54;20982;-66
2024/04/04 04:43:00;;;;;;;0.70;0.50;;;18.60;1.00;;;;;;2612455;54;20245;-65
2024/04/04 04:45:26;;;;;;;0.70;0.60;;;18.60;1.00;;;;;;2613651;31;20645;-59
2024/04/04 04:47:52;;;;;;;0.70;0.50;;;18.60;1.00;;;;;;2613041;54;20193;-59
2024/04/04 04:50:17;;;;;;;0.70;0.50;;;18.60;1.00;;;;;;2612675;54;20199;-59
2024/04/04 04:52:43;;;;;;;0.70;0.60;;;18.60;1.00;;;;;;2612707;51;20194;-58
2024/04/04 04:55:09;;;;;;;0.70;0.50;;;18.60;1.00;;;;;;2611939;50;20246;-59
2024/04/04 04:57:35;;;;;;;3.47;2.87;;;18.60;1.00;;;;;;2612513;54;20162;-58
2024/04/04 05:00:01;;;;;;;0.60;0.40;;;18.60;1.00;;;;;;2611657;47;20159;-59
2024/04/04 05:02:27;;;;;;;0.67;0.40;;;18.60;1.00;;;;;;2612595;54;20446;-59
2024/04/04 05:04:53;;;;;;;1.07;0.93;;;18.60;1.00;;;;;;2611205;47;20435;-58
2024/04/04 05:07:19;;;;;;;0.60;0.50;;;18.60;1.00;;;;;;2612080;54;20523;-59
2024/04/04 05:09:44;;;;;;;0.70;0.50;;;18.60;1.00;;;;;;2612162;54;20166;-61
2024/04/04 05:12:10;;;;;;;0.70;0.50;;;18.60;1.00;;;;;;2612145;54;20163;-58
2024/04/04 05:14:36;;;;;;;0.70;0.60;;;18.60;1.00;;;;;;2612064;54;20161;-59
2024/04/04 05:17:02;;;;;;;0.70;0.50;;;18.60;1.00;;;;;;2613125;31;20796;-61
2024/04/04 05:19:27;;;;;;;0.60;0.60;;;18.60;1.00;;;;;;2612389;54;20171;-61
2024/04/04 05:21:53;;;;;;;0.70;0.50;;;18.60;1.00;;;;;;2613065;54;20172;-63
2024/04/04 05:24:19;;;;;;;0.70;0.50;;;18.60;1.00;;;;;;2612121;54;20700;-63
2024/04/04 05:26:44;;;;;;;0.60;0.50;;;18.60;1.00;;;;;;2611739;54;20167;-65
2024/04/04 05:29:12;;;;;;;0.60;0.40;;;18.60;1.00;;;;;;2612768;47;20193;-64
2024/04/04 05:31:38;;;;;;;0.70;0.50;;;18.60;1.00;;;;;;2612468;39;20599;-63
2024/04/04 05:34:04;;;;;;;0.63;0.40;;;18.60;1.00;;;;;;2613218;39;20828;-61
2024/04/04 05:36:30;;;;;;;0.60;0.50;;;18.60;1.00;;;;;;2613880;39;20556;-62
2024/04/04 05:38:56;;;;;;;0.70;0.50;;;18.60;1.00;;;;;;2614022;54;20391;-62
2024/04/04 05:41:21;;;;;;;0.60;0.40;;;18.60;1.00;;;;;;2612918;54;20143;-62
2024/04/04 05:43:47;;;;;;;0.60;0.50;;;18.60;1.00;;;;;;2613383;54;20219;-62
2024/04/04 05:46:13;;;;;;;0.60;0.40;;;18.60;1.00;;;;;;2612676;54;20190;-73
2024/04/04 05:48:38;;;;;;;0.70;0.50;;;18.60;1.00;;;;;;2613422;54;20154;-73
2024/04/04 05:51:05;;;;;;;0.60;0.50;;;18.60;1.00;;;;;;2613821;47;20159;-71
2024/04/04 05:53:31;;;;;;;0.60;0.40;;;18.60;1.00;;;;;;2613834;54;20197;-72
2024/04/04 05:55:57;;;;;;;0.60;0.50;;;18.60;1.00;;;;;;2612912;47;20471;-63
2024/04/04 05:58:23;;;;;;;0.60;0.40;;;18.60;1.00;;;;;;2612397;47;20426;-63
2024/04/04 06:00:49;;;;;;;0.60;0.40;;;18.60;1.00;;;;;;2612756;54;20395;-62
2024/04/04 06:03:14;;;;;;;0.70;0.40;;;18.60;1.00;;;;;;2612639;54;20162;-61
2024/04/04 06:05:41;;;;;;;0.60;0.50;;;18.60;1.00;;;;;;2612610;46;20696;-62
2024/04/04 06:08:08;;;;;;;0.60;0.50;;;18.60;1.00;;;;;;2612758;47;20631;-62
2024/04/04 06:10:35;;;;;;;0.70;0.50;;;18.60;1.00;;;;;;2613197;54;20411;-62
2024/04/04 06:13:01;;;;;;;0.60;0.40;;;18.60;1.00;;;;;;2612827;54;20907;-62
2024/04/04 06:15:27;;;;;;;0.60;0.40;;;18.60;1.00;;;;;;2613447;54;20427;-62
2024/04/04 06:17:53;;;;;;;0.60;0.47;;;18.60;1.00;;;;;;2612847;46;20427;-62
2024/04/04 06:20:18;;;;;;;0.60;0.50;;;18.60;1.00;;;;;;2613372;54;20158;-62
2024/04/04 06:22:44;;;;;;;0.70;0.50;;;18.60;1.00;;;;;;2613157;54;20167;-63
2024/04/04 06:25:10;;;;;;;0.63;0.40;;;18.60;1.00;;;;;;2612741;54;20163;-60
2024/04/04 06:27:36;;;;;;;0.70;0.50;;;18.60;1.00;;;;;;2612616;54;20166;-60
2024/04/04 06:30:02;;;;;;;0.70;0.40;;;18.60;1.00;;;;;;2612277;54;20771;-60
2024/04/04 06:32:28;;;;;;;0.60;0.40;;;18.60;1.00;;;;;;2613065;39;20565;-60
2024/04/04 06:34:53;;;;;;;0.60;0.40;;;18.60;1.00;;;;;;2613733;54;20409;-60
2024/04/04 06:37:19;;;;;;;0.70;0.50;;;18.60;1.00;;;;;;2613412;54;20179;-60
2024/04/04 06:39:45;;;;;;;0.70;0.60;;;18.60;1.00;;;;;;2613128;39;20634;-62
2024/04/04 06:42:12;;;;;;;0.60;0.50;;;18.60;1.00;;;;;;2613235;54;20162;-60
2024/04/04 06:44:38;;;;;;;0.70;0.60;;;18.60;1.00;;;;;;2612361;47;20427;-62
2024/04/04 06:47:04;;;;;;;0.60;0.40;;;18.60;1.00;;;;;;2613119;54;20455;-60
2024/04/04 06:49:29;;;;;;;0.70;0.50;;;18.60;1.00;;;;;;2613280;54;20988;-60
2024/04/04 06:51:55;;;;;;;0.70;0.50;;;18.60;1.00;;;;;;2613267;54;20506;-60
2024/04/04 06:54:21;;;;;;;0.70;0.60;;;18.60;1.00;;;;;;2611770;54;20289;-61
2024/04/04 06:56:47;;;;;;;0.70;0.40;;;18.60;1.00;;;;;;2612968;54;20492;-60
2024/04/04 06:59:13;;;;;;;0.60;0.40;;;18.60;1.00;;;;;;2613292;54;20431;-60
2024/04/04 07:01:39;;;;;;;0.60;0.40;;;18.60;1.00;;;;;;2612397;54;20151;-61
2024/04/04 07:04:07;;;;;;;0.60;0.40;;;18.60;1.00;;;;;;2611492;39;20920;-61
2024/04/04 07:06:33;;;;;;;0.60;0.40;;;18.60;1.00;;;;;;2614091;39;20583;-59
2024/04/04 07:08:59;;;;;;;0.60;0.40;;;18.60;1.00;;;;;;2612791;46;20442;-59
2024/04/04 07:11:26;;;;;;;0.60;0.40;;;18.60;1.00;;;;;;2613033;47;20456;-57
2024/04/04 07:13:52;;;;;;;0.60;0.40;;;18.60;1.00;;;;;;2613071;54;20178;-60
2024/04/04 07:16:17;;;;;;;0.60;0.40;;;18.60;1.00;;;;;;2613959;54;21033;-72
2024/04/04 07:18:43;;;;;;;0.60;0.40;;;18.60;1.00;;;;;;2613319;54;20167;-72
2024/04/04 07:21:10;;;;;;;0.60;0.40;;;18.60;1.00;;;;;;2614508;54;20203;-72
2024/04/04 07:23:36;;;;;;;0.63;0.40;;;18.60;1.00;;;;;;2611574;47;20430;-73
2024/04/04 07:26:02;;;;;;;0.60;0.40;;;18.60;1.00;;;;;;2613705;47;20495;-73
2024/04/04 07:28:28;;;;;;;0.60;0.40;;;18.60;1.00;;;;;;2613418;54;20170;-72
2024/04/04 07:30:54;;;;;;;0.60;0.30;;;18.60;1.00;;;;;;2613416;54;20451;-73
2024/04/04 07:33:20;;;;;;;0.60;0.40;;;18.60;1.00;;;;;;2613804;54;20447;-73
2024/04/04 07:35:45;;;;;;;0.60;0.30;;;18.60;1.00;;;;;;2613344;47;20412;-73
2024/04/04 07:38:13;;;;;;;0.60;0.40;;;18.60;1.00;;;;;;2613941;54;20242;-73
2024/04/04 07:40:40;;;;;;;0.60;0.40;;;18.60;1.00;;;;;;2613879;39;20527;-72
2024/04/04 07:43:07;;;;;;;0.60;0.40;;;18.60;1.00;;;;;;2613305;47;20431;-71
2024/04/04 07:45:41;;;;;;;0.70;0.40;;;18.60;1.00;;;;;;2613029;54;20415;-66
2024/04/04 07:48:09;;;;;;;0.60;0.40;;;18.70;1.00;;;;;;2613298;47;20415;-66
2024/04/04 07:50:36;;;;;;;0.60;0.40;;;18.60;1.00;;;;;;2612356;50;20475;-67
2024/04/04 07:53:02;;;;;;;0.70;0.47;;;18.60;1.00;;;;;;2611519;46;20472;-71
2024/04/04 07:55:29;;;;;;;0.70;0.40;;;18.60;1.00;;;;;;2612058;54;20431;-66
2024/04/04 07:57:55;;;;;;;0.60;0.40;;;18.60;1.00;;;;;;2612738;47;20423;-66
2024/04/04 08:00:21;;;;;;;0.60;0.40;;;18.60;1.00;;;;;;2612985;47;20514;-66
2024/04/04 08:02:47;;;;;;;0.70;0.50;;;18.60;1.00;;;;;;2611577;54;20182;-66
2024/04/04 08:05:13;;;;;;;0.70;0.50;;;18.60;1.00;;;;;;2613125;54;20419;-66
2024/04/04 08:07:38;;;;;;;0.67;0.50;;;18.60;1.00;;;;;;2612297;39;20385;-66
2024/04/04 08:10:06;;;;;;;0.60;0.40;;;18.60;1.00;;;;;;2612318;54;20242;-67
2024/04/04 08:12:36;;;;;;;0.60;0.40;;;18.60;1.00;;;;;;2612950;54;20146;-66
2024/04/04 08:15:09;;;;;;;0.60;0.47;;;18.60;1.00;;;;;;2613326;47;20408;-62
2024/04/04 08:17:36;;;;;;;0.67;0.50;;;18.60;1.00;;;;;;2613152;47;20451;-65
2024/04/04 08:20:03;;;;;;;0.60;0.50;;;18.60;1.00;;;;;;2613182;47;20440;-59
2024/04/04 08:22:28;;;;;;;0.60;0.40;;;18.60;1.00;;;;;;2611675;54;20514;-60
2024/04/04 08:24:54;;;;;;;0.60;0.40;;;18.60;1.00;;;;;;2612918;54;20448;-63
2024/04/04 08:27:20;;;;;;;0.60;0.40;;;18.60;1.00;;;;;;2613047;54;20254;-62
2024/04/04 08:29:50;;;;;;;0.60;0.40;;;18.60;1.00;;;;;;2612293;54;20683;-63
2024/04/04 08:32:16;;;;;;;0.70;0.40;;;18.60;1.00;;;;;;2613333;39;20248;-62
2024/04/04 08:34:43;;;;;;;0.67;0.50;;;18.60;1.00;;;;;;2613387;39;20979;-63
2024/04/04 08:37:11;;;;;;;0.60;0.40;;;18.60;1.00;;;;;;2612935;54;20442;-62
2024/04/04 08:39:38;;;;;;;0.67;0.50;;;18.60;1.00;;;;;;2612807;54;20491;-62
2024/04/04 08:42:04;;;;;;;0.60;0.40;;;18.60;1.00;;;;;;2612486;46;20439;-63
2024/04/04 08:44:31;;;;;;;0.60;0.43;;;18.60;1.00;;;;;;2611573;54;20487;-62
2024/04/04 08:46:59;;;;;;;0.70;0.40;;;18.60;1.00;;;;;;2613317;39;20788;-62
2024/04/04 08:49:28;;;;;;;0.60;0.40;;;18.60;1.00;;;;;;2613019;54;20407;-64
2024/04/04 08:51:56;;;;;;;0.60;0.40;;;18.60;1.00;;;;;;2612476;54;20415;-62
2024/04/04 08:54:23;;;;;;;0.60;0.40;;;18.60;1.00;;;;;;2612680;54;20450;-63
2024/04/04 08:56:49;;;;;;;0.70;0.40;;;18.60;1.00;;;;;;2612851;47;20468;-61
2024/04/04 08:59:18;;;;;;;0.60;0.40;;;18.60;1.00;;;;;;2611730;47;20416;-60
2024/04/04 09:01:44;;;;;;;0.60;0.40;;;18.60;1.00;;;;;;2611171;54;20463;-60
2024/04/04 09:04:10;;;;;;;0.60;0.50;;;18.60;1.00;;;;;;2612045;54;20422;-61
2024/04/04 09:06:37;;;;;;;0.60;0.40;;;18.60;1.00;;;;;;2613323;39;20919;-61
2024/04/04 09:09:03;;;;;;;0.70;0.50;;;18.60;1.00;;;;;;2613771;47;20415;-60
2024/04/04 09:11:30;;;;;;;0.70;0.50;;;18.70;1.00;;;;;;2613900;47;21346;-61
2024/04/04 09:14:12;;;;;;;0.60;0.40;;;18.70;1.00;;;;;;2613354;47;20173;-59
2024/04/04 09:16:47;;;;;;;0.60;0.40;;;18.70;1.00;;;;;;2613917;54;20411;-60
2024/04/04 09:19:19;;;;;;;0.60;0.50;;;18.70;1.00;;;;;;2614472;47;20415;-60
2024/04/04 09:21:46;;;;;;;0.60;0.40;;;18.70;1.00;;;;;;2614341;54;20972;-60
2024/04/04 09:24:14;;;;;;;0.60;0.40;;;18.70;1.00;;;;;;2614491;47;20427;-60
2024/04/04 09:26:40;;;;;;;0.60;0.40;;;18.80;1.00;;;;;;2614681;54;20430;-62
2024/04/04 09:29:07;;;;;;;0.60;0.40;;;18.80;1.00;;;;;;2614208;47;20439;-62
2024/04/04 09:31:35;;;;;;;0.70;0.60;;;18.80;1.00;;;;;;2613651;54;20427;-62
2024/04/04 09:34:01;;;;;;;0.60;0.50;;;18.80;1.00;;;;;;2614526;47;20408;-62
2024/04/04 09:36:33;;;;;;;0.60;0.40;;;18.80;1.00;;;;;;2614680;47;20431;-67
2024/04/04 09:39:00;;;;;;;0.60;0.40;;;18.80;1.00;;;;;;2613704;54;20956;-67
2024/04/04 09:41:30;;;;;;;0.60;0.40;;;18.80;1.00;;;;;;2614330;54;20409;-67
2024/04/04 09:43:59;;;;;;;0.60;0.40;;;18.80;1.00;;;;;;2613752;47;20438;-67
2024/04/04 09:46:26;;;;;;;0.60;0.40;;;18.80;1.00;;;;;;2615041;39;20933;-67
2024/04/04 09:48:55;;;;;;;0.60;0.40;;;18.80;1.00;;;;;;2614389;54;20414;-66
2024/04/04 09:51:21;;;;;;;0.60;0.40;;;18.80;1.00;;;;;;2614810;54;20419;-66
2024/04/04 09:53:49;;;;;;;0.70;0.50;;;18.80;1.00;;;;;;2614439;39;20907;-66
2024/04/04 09:56:17;;;;;;;0.60;0.40;;;18.80;1.00;;;;;;2614282;54;20407;-66
2024/04/04 09:58:43;;;;;;;0.60;0.40;;;18.90;1.00;;;;;;2614586;47;20455;-66
2024/04/04 10:01:20;;;;;;;0.60;0.40;;;18.90;1.00;;;;;;2613663;47;20434;-66
2024/04/04 10:03:55;;;;;;;0.60;0.40;;;18.90;1.00;;;;;;2614095;54;20517;-66
2024/04/04 10:06:36;;;;;;;0.60;0.40;;;19.00;1.00;;;;;;2613904;47;20445;-73
2024/04/04 10:09:16;;;;;;;0.60;0.40;;;19.00;1.00;;;;;;2614978;47;20423;-71
2024/04/04 10:11:43;;;;;;;0.60;0.40;;;19.00;1.00;;;;;;2614142;54;20466;-72
2024/04/04 10:14:22;;;;;;;0.60;0.40;;;18.90;1.00;;;;;;2614683;54;20500;-71
2024/04/04 10:16:55;;;;;;;0.60;0.40;;;18.90;1.00;;;;;;2614475;46;20446;-73
2024/04/04 10:19:23;;;;;;;0.60;0.37;;;18.90;1.00;;;;;;2614810;54;20435;-73
2024/04/04 10:21:50;;;;;;;0.60;0.40;;;18.90;1.00;;;;;;2613690;46;20912;-73
2024/04/04 10:24:29;;;;;;;0.60;0.37;;;18.90;1.00;;;;;;2613411;47;20452;-72
2024/04/04 10:26:57;;;;;;;0.60;0.40;;;18.90;1.00;;;;;;2613501;54;20430;-71
2024/04/04 10:29:24;;;;;;;0.60;0.30;;;18.90;1.00;;;;;;2611802;54;20427;-72
2024/04/04 10:31:52;;;;;;;0.60;0.37;;;18.90;1.00;;;;;;2613150;47;20411;-73
2024/04/04 10:34:18;;;;;;;0.60;0.33;;;18.90;1.00;;;;;;2613384;54;20431;-71
2024/04/04 10:36:45;;;;;;;0.60;0.30;;;18.90;1.00;;;;;;2612568;54;20432;-72
2024/04/04 10:39:13;;;;;;;0.60;0.40;;;18.90;1.00;;;;;;2613358;47;20150;-72
2024/04/04 10:41:46;;;;;;;0.60;0.40;;;18.90;1.00;;;;;;2612361;54;20467;-72
2024/04/04 10:44:13;;;;;;;0.60;0.40;;;18.90;1.00;;;;;;2612725;54;20423;-72
2024/04/04 10:46:41;;;;;;;0.60;0.40;;;18.90;1.00;;;;;;2613160;54;20403;-61
2024/04/04 10:49:06;;;;;;;0.60;0.40;;;18.90;1.00;;;;;;2612606;48;20399;-63
2024/04/04 10:51:32;;;;;;;0.60;0.40;;;18.90;1.00;;;;;;2613651;54;20456;-62
2024/04/04 10:53:58;;;;;;;0.70;0.40;;;18.90;1.00;;;;;;2612105;54;20229;-62
2024/04/04 10:56:25;;;;;;;0.60;0.40;;;19.00;1.00;;;;;;2612089;54;20952;-61
2024/04/04 10:58:51;;;;;;;0.60;0.40;;;19.00;1.00;;;;;;2613017;54;20167;-63
2024/04/04 11:01:17;;;;;;;0.60;0.30;;;19.00;1.00;;;;;;2612395;47;20418;-62
2024/04/04 11:03:42;;;;;;;0.60;0.40;;;18.90;1.00;;;;;;2613817;39;20812;-62
2024/04/04 11:06:08;;;;;;;0.60;0.40;;;19.00;1.00;;;;;;2612496;54;20159;-62
2024/04/04 11:08:34;;;;;;;0.60;0.40;;;19.00;1.00;;;;;;2613120;54;20174;-61
2024/04/04 11:11:00;;;;;;;0.60;0.40;;;19.00;1.00;;;;;;2612666;47;20242;-63
2024/04/04 11:13:27;;;;;;;0.60;0.40;;;19.00;1.00;;;;;;2612431;46;20186;-63
2024/04/04 11:15:55;;;;;;;0.60;0.40;;;19.00;1.00;;;;;;2613472;47;20423;-67
2024/04/04 11:18:20;;;;;;;0.60;0.40;;;19.00;1.00;;;;;;2612816;47;20411;-67
2024/04/04 11:20:46;;;;;;;0.60;0.40;;;19.00;1.00;;;;;;2613282;54;20418;-67
2024/04/04 11:23:12;;;;;;;0.60;0.40;;;19.00;1.00;;;;;;2612808;54;20428;-66
2024/04/04 11:25:37;;;;;;;0.70;0.50;;;19.00;1.00;;;;;;2613300;54;20219;-66
2024/04/04 11:28:03;;;;;;;0.60;0.40;;;19.00;1.00;;;;;;2613318;54;20246;-65
2024/04/04 11:30:29;;;;;;;0.60;0.40;;;19.00;1.00;;;;;;2612570;47;20199;-66
2024/04/04 11:32:55;;;;;;;0.60;0.40;;;19.00;1.00;;;;;;2612246;54;20546;-66
2024/04/04 11:35:20;;;;;;;0.60;0.40;;;19.00;1.00;;;;;;2613166;54;20639;-66
2024/04/04 11:37:46;;;;;;;0.60;0.37;;;19.00;1.00;;;;;;2613361;54;20244;-65
2024/04/04 11:40:12;;;;;;;0.60;0.40;;;19.00;1.00;;;;;;2612897;47;20313;-66
2024/04/04 11:42:38;;;;;;;0.60;0.40;;;19.00;1.00;;;;;;2613388;54;20814;-66
2024/04/04 11:45:05;;;;;;;0.60;0.40;;;19.00;1.00;;;;;;2612767;54;20175;-62
2024/04/04 11:47:30;;;;;;;0.60;0.40;;;19.00;1.00;;;;;;2612175;47;20456;-62
2024/04/04 11:49:56;;;;;;;0.60;0.40;;;19.00;1.00;;;;;;2612750;54;20400;-62
2024/04/04 11:52:22;;;;;;;0.60;0.40;;;19.00;1.00;;;;;;2613087;54;20162;-63
2024/04/04 11:54:48;;;;;;;0.60;0.40;;;19.00;1.00;;;;;;2613166;54;20201;-73
2024/04/04 11:57:14;;;;;;;0.60;0.40;;;19.00;1.00;;;;;;2612343;54;20196;-62
2024/04/04 11:59:42;;;;;;;0.60;0.40;;;19.00;1.00;;;;;;2612816;47;20423;-63
2024/04/04 12:02:08;;;;;;;0.60;0.50;;;19.00;1.00;;;;;;2612363;39;20613;-64
2024/04/04 12:04:43;;;;;;;0.60;0.40;;;19.00;1.00;;;;;;2612102;47;20414;-62
2024/04/04 12:07:09;;;;;;;0.60;0.40;;;19.00;1.00;;;;;;2613547;54;20464;-62
2024/04/04 12:09:35;;;;;;;0.60;0.40;;;19.00;1.00;;;;;;2612822;54;20408;-61
2024/04/04 12:12:00;;;;;;;0.60;0.50;;;19.00;1.00;;;;;;2613039;47;20771;-62
2024/04/04 12:14:26;;;;;;;0.60;0.40;;;19.00;1.00;;;;;;2612914;54;20515;-63
2024/04/04 12:16:54;;;;;;;0.60;0.40;;;19.00;1.00;;;;;;2612720;47;20278;-62
2024/04/04 12:19:26;;;;;;;0.60;0.40;;;18.90;1.00;;;;;;2613022;54;20668;-62
2024/04/04 12:21:52;;;;;;;0.60;0.30;;;19.00;1.00;;;;;;2612464;54;20448;-63
2024/04/04 12:24:18;;;;;;;0.60;0.40;;;18.90;1.00;;;;;;2612645;47;20456;-62
2024/04/04 12:26:44;;;;;;;0.60;0.40;;;19.00;1.00;;;;;;2612274;54;20435;-62
2024/04/04 12:29:11;;;;;;;0.60;0.40;;;19.00;1.00;;;;;;2613152;54;20508;-62
2024/04/04 12:31:37;;;;;;;0.60;0.40;;;19.00;1.00;;;;;;2613113;39;20481;-62
2024/04/04 12:34:05;;;;;;;0.60;0.40;;;19.00;1.00;;;;;;2613502;54;20455;-62
2024/04/04 12:36:31;;;;;;;0.60;0.40;;;19.00;1.00;;;;;;2611900;47;20158;-62
2024/04/04 12:38:57;;;;;;;0.60;0.40;;;19.00;1.00;;;;;;2612893;54;20542;-62
2024/04/04 12:41:23;;;;;;;0.60;0.40;;;19.00;1.00;;;;;;2612498;39;20809;-64
2024/04/04 12:43:48;;;;;;;0.60;0.30;;;19.00;1.00;;;;;;2613019;54;20170;-64
2024/04/04 12:46:14;;;;;;;0.60;0.40;;;19.00;1.00;;;;;;2612381;47;20711;-65
2024/04/04 12:48:44;;;;;;;0.60;0.40;;;19.00;1.00;;;;;;2611942;54;20158;-64
2024/04/04 12:51:10;;;;;;;0.60;0.40;;;19.00;1.00;;;;;;2613029;54;20166;-62
2024/04/04 12:53:35;;;;;;;0.60;0.40;;;19.00;1.00;;;;;;2612144;54;20522;-63
2024/04/04 12:56:01;;;;;;;0.60;0.40;;;19.00;1.00;;;;;;2613201;54;21179;-61